createdAt,value
2018-06-02T00:01:01.436Z,21.54
2018-06-02T00:03:29.593Z,21.54
2018-06-02T00:05:58.074Z,21.52
2018-06-02T00:08:26.128Z,21.48
2018-06-02T00:10:53.951Z,21.44
2018-06-02T00:13:22.049Z,21.27
2018-06-02T00:15:50.333Z,21.38
2018-06-02T00:18:18.430Z,21.42
2018-06-02T00:20:46.524Z,21.35
2018-06-02T00:23:14.702Z,21.30
2018-06-02T00:25:42.848Z,21.27
2018-06-02T00:28:11.128Z,21.23
2018-06-02T00:30:39.192Z,21.19
2018-06-02T00:33:07.013Z,21.12
2018-06-02T00:35:34.954Z,21.06
2018-06-02T00:38:03.204Z,21.00
2018-06-02T00:40:31.110Z,20.96
2018-06-02T00:42:59.178Z,20.91
2018-06-02T00:45:27.270Z,20.89
2018-06-02T00:47:55.442Z,20.87
2018-06-02T00:50:23.628Z,20.88
2018-06-02T00:52:51.834Z,20.91
2018-06-02T00:55:19.932Z,20.82
2018-06-02T00:57:47.974Z,20.71
2018-06-02T01:00:16.396Z,20.64
2018-06-02T01:02:44.428Z,20.62
2018-06-02T01:05:12.295Z,20.63
2018-06-02T01:07:40.677Z,20.62
2018-06-02T01:10:08.742Z,20.57
2018-06-02T01:12:36.658Z,20.53
2018-06-02T01:15:04.806Z,20.50
2018-06-02T01:17:32.851Z,20.46
2018-06-02T01:20:00.721Z,20.50
2018-06-02T01:22:29.153Z,20.52
2018-06-02T01:24:57.270Z,20.48
2018-06-02T01:27:25.349Z,20.52
2018-06-02T01:29:53.515Z,20.56
2018-06-02T01:32:21.415Z,20.49
2018-06-02T01:34:49.299Z,20.44
2018-06-02T01:37:17.688Z,20.42
2018-06-02T01:39:46.108Z,20.42
2018-06-02T01:42:14.006Z,20.40
2018-06-02T01:44:42.150Z,20.37
2018-06-02T01:47:10.223Z,20.41
2018-06-02T01:49:38.037Z,20.45
2018-06-02T01:52:06.263Z,20.43
2018-06-02T01:54:34.436Z,20.34
2018-06-02T01:57:02.344Z,20.19
2018-06-02T01:59:30.583Z,20.12
2018-06-02T02:01:58.700Z,20.08
2018-06-02T02:04:26.711Z,20.15
2018-06-02T02:06:54.767Z,20.17
2018-06-02T02:09:22.930Z,20.18
2018-06-02T02:11:50.730Z,20.03
2018-06-02T02:14:18.726Z,20.15
2018-06-02T02:16:46.797Z,20.11
2018-06-02T02:19:14.636Z,20.01
2018-06-02T02:21:42.701Z,19.93
2018-06-02T02:24:11.416Z,19.86
2018-06-02T02:26:39.455Z,19.92
2018-06-02T02:29:08.050Z,19.91
2018-06-02T02:31:36.320Z,19.89
2018-06-02T02:34:04.186Z,19.84
2018-06-02T02:36:34.411Z,19.86
2018-06-02T02:39:02.487Z,19.89
2018-06-02T02:41:31.373Z,19.86
2018-06-02T02:43:59.825Z,19.77
2018-06-02T02:46:27.671Z,19.76
2018-06-02T02:48:55.481Z,19.79
2018-06-02T02:51:23.859Z,19.76
2018-06-02T02:53:51.704Z,19.74
2018-06-02T02:56:19.601Z,19.78
2018-06-02T02:58:49.097Z,19.77
2018-06-02T03:01:17.732Z,19.77
2018-06-02T03:03:45.544Z,19.75
2018-06-02T03:06:13.720Z,19.74
2018-06-02T03:08:42.454Z,19.76
2018-06-02T03:11:10.682Z,19.82
2018-06-02T03:13:38.911Z,19.88
2018-06-02T03:16:06.925Z,19.88
2018-06-02T03:18:35.106Z,19.77
2018-06-02T03:21:03.208Z,19.75
2018-06-02T03:23:31.165Z,19.73
2018-06-02T03:25:59.443Z,19.53
2018-06-02T03:28:27.592Z,19.74
2018-06-02T03:30:55.768Z,19.81
2018-06-02T03:33:23.861Z,19.84
2018-06-02T03:35:52.012Z,19.90
2018-06-02T03:38:20.083Z,19.84
2018-06-02T03:40:48.368Z,19.74
2018-06-02T03:43:16.375Z,19.73
2018-06-02T03:45:44.275Z,19.67
2018-06-02T03:48:12.388Z,19.64
2018-06-02T03:50:40.285Z,19.63
2018-06-02T03:53:08.655Z,19.66
2018-06-02T03:55:36.787Z,19.67
2018-06-02T03:58:04.755Z,19.58
2018-06-02T04:00:32.676Z,19.49
2018-06-02T04:03:00.769Z,19.44
2018-06-02T04:05:29.125Z,19.45
2018-06-02T04:07:57.038Z,19.47
2018-06-02T04:10:25.323Z,19.55
2018-06-02T04:12:53.279Z,19.56
2018-06-02T04:15:21.303Z,19.62
2018-06-02T04:17:49.468Z,19.70
2018-06-02T04:26:03.587Z,19.88
2018-06-02T04:28:31.679Z,19.94
2018-06-02T04:30:59.859Z,19.94
2018-06-02T04:33:28.241Z,19.94
2018-06-02T04:35:56.447Z,19.97
2018-06-02T04:38:24.475Z,20.00
2018-06-02T04:40:52.900Z,19.89
2018-06-02T04:43:20.662Z,19.87
2018-06-02T04:45:48.591Z,19.86
2018-06-02T04:48:16.953Z,19.89
2018-06-02T04:50:44.770Z,19.73
2018-06-02T04:53:12.945Z,19.93
2018-06-02T04:55:41.360Z,20.02
2018-06-02T04:58:09.149Z,20.11
2018-06-02T05:00:37.015Z,20.20
2018-06-02T05:03:05.322Z,20.29
2018-06-02T05:05:33.259Z,20.36
2018-06-02T05:08:01.220Z,20.46
2018-06-02T05:10:29.614Z,20.52
2018-06-02T05:12:57.448Z,20.60
2018-06-02T05:15:25.646Z,20.65
2018-06-02T05:17:54.153Z,20.71
2018-06-02T05:20:22.461Z,20.79
2018-06-02T05:22:50.365Z,20.89
2018-06-02T05:25:18.755Z,20.96
2018-06-02T05:27:46.600Z,21.04
2018-06-02T05:30:14.608Z,21.10
2018-06-02T05:32:42.822Z,21.20
2018-06-02T05:35:10.795Z,21.30
2018-06-02T05:37:38.539Z,21.36
2018-06-02T05:40:06.699Z,21.42
2018-06-02T05:42:34.741Z,21.54
2018-06-02T05:45:02.494Z,21.73
2018-06-02T05:47:30.666Z,21.86
2018-06-02T05:49:58.686Z,21.96
2018-06-02T05:52:26.465Z,22.09
2018-06-02T05:54:54.602Z,22.20
2018-06-02T05:57:22.513Z,22.28
2018-06-02T05:59:50.382Z,22.32
2018-06-02T06:02:18.970Z,22.31
2018-06-02T06:04:46.861Z,22.23
2018-06-02T06:07:14.918Z,22.23
2018-06-02T06:09:43.017Z,22.25
2018-06-02T06:12:10.858Z,22.31
2018-06-02T06:14:38.761Z,22.36
2018-06-02T06:17:06.870Z,22.39
2018-06-02T06:19:34.770Z,22.48
2018-06-02T06:22:02.501Z,22.50
2018-06-02T06:24:30.671Z,22.56
2018-06-02T06:26:58.526Z,22.63
2018-06-02T06:29:26.330Z,22.67
2018-06-02T06:31:54.612Z,22.64
2018-06-02T06:34:22.847Z,22.79
2018-06-02T06:36:50.634Z,22.88
2018-06-02T06:39:19.073Z,22.97
2018-06-02T06:41:46.850Z,23.04
2018-06-02T06:44:14.884Z,23.09
2018-06-02T06:46:42.956Z,23.19
2018-06-02T06:49:10.745Z,23.23
2018-06-02T06:51:38.597Z,23.07
2018-06-02T06:54:06.863Z,23.31
2018-06-02T06:56:34.619Z,23.43
2018-06-02T06:59:02.453Z,23.55
2018-06-02T07:01:30.826Z,23.66
2018-06-02T07:03:58.605Z,23.68
2018-06-02T07:06:26.323Z,23.73
2018-06-02T07:08:54.810Z,23.79
2018-06-02T07:11:22.581Z,23.84
2018-06-02T07:13:50.642Z,23.92
2018-06-02T07:16:19.232Z,23.97
2018-06-02T07:18:47.183Z,24.07
2018-06-02T07:21:14.899Z,24.16
2018-06-02T07:23:42.927Z,24.21
2018-06-02T07:26:10.801Z,24.23
2018-06-02T07:28:38.570Z,24.13
2018-06-02T07:31:06.996Z,24.47
2018-06-02T07:33:34.833Z,25.53
2018-06-02T07:36:02.773Z,27.21
2018-06-02T07:38:31.073Z,28.02
2018-06-02T07:40:58.773Z,28.81
2018-06-02T07:43:26.720Z,28.92
2018-06-02T07:45:54.878Z,29.30
2018-06-02T07:48:22.640Z,29.86
2018-06-02T07:50:50.594Z,29.59
2018-06-02T07:53:18.874Z,29.85
2018-06-02T07:55:46.973Z,29.50
2018-06-02T07:58:14.792Z,29.55
2018-06-02T08:00:42.929Z,29.34
2018-06-02T08:03:10.740Z,29.07
2018-06-02T08:05:38.712Z,28.25
2018-06-02T08:08:07.002Z,27.82
2018-06-02T08:10:34.819Z,27.81
2018-06-02T08:13:02.583Z,28.15
2018-06-02T08:15:30.844Z,28.30
2018-06-02T08:17:58.868Z,28.09
2018-06-02T08:20:26.605Z,28.01
2018-06-02T08:22:54.811Z,28.39
2018-06-02T08:25:22.675Z,28.25
2018-06-02T08:27:50.443Z,28.33
2018-06-02T08:30:19.013Z,28.75
2018-06-02T08:32:46.752Z,28.77
2018-06-02T08:35:14.779Z,28.61
2018-06-02T08:37:43.397Z,28.54
2018-06-02T08:40:11.492Z,28.29
2018-06-02T08:42:39.410Z,28.21
2018-06-02T08:45:07.617Z,28.09
2018-06-02T08:47:35.734Z,28.19
2018-06-02T08:50:03.810Z,28.39
2018-06-02T08:52:31.729Z,28.25
2018-06-02T08:54:59.710Z,28.34
2018-06-02T08:57:27.773Z,28.33
2018-06-02T08:59:55.844Z,28.36
2018-06-02T09:02:23.848Z,28.04
2018-06-02T09:04:51.736Z,27.89
2018-06-02T09:07:19.993Z,27.89
2018-06-02T09:09:49.179Z,28.25
2018-06-02T09:12:17.215Z,28.24
2018-06-02T09:14:45.121Z,28.08
2018-06-02T09:17:12.897Z,28.14
2018-06-02T09:19:40.946Z,28.24
2018-06-02T09:22:08.893Z,28.16
2018-06-02T09:24:36.653Z,28.10
2018-06-02T09:27:04.727Z,28.11
2018-06-02T09:29:32.539Z,27.87
2018-06-02T09:32:00.320Z,27.95
2018-06-02T09:34:28.136Z,28.09
2018-06-02T09:36:56.151Z,27.81
2018-06-02T09:39:24.232Z,28.08
2018-06-02T09:41:52.394Z,28.14
2018-06-02T09:44:20.536Z,28.30
2018-06-02T09:46:48.281Z,28.17
2018-06-02T09:49:16.302Z,28.38
2018-06-02T09:51:44.171Z,28.22
2018-06-02T09:54:11.981Z,28.05
2018-06-02T09:56:39.925Z,28.06
2018-06-02T09:59:08.293Z,28.14
2018-06-02T10:01:36.166Z,27.90
2018-06-02T10:04:03.958Z,28.04
2018-06-02T10:06:32.172Z,28.09
2018-06-02T10:08:59.958Z,27.98
2018-06-02T10:11:27.921Z,28.12
2018-06-02T10:13:56.323Z,28.07
2018-06-02T10:16:24.091Z,27.99
2018-06-02T10:18:51.856Z,27.80
2018-06-02T10:21:20.132Z,27.91
2018-06-02T10:23:47.912Z,28.14
2018-06-02T10:26:15.824Z,28.32
2018-06-02T10:28:43.995Z,28.15
2018-06-02T10:31:11.798Z,28.13
2018-06-02T10:33:39.642Z,27.91
2018-06-02T10:36:08.162Z,27.74
2018-06-02T10:38:35.996Z,27.89
2018-06-02T10:41:04.284Z,27.95
2018-06-02T10:43:32.485Z,27.56
2018-06-02T10:46:00.449Z,27.80
2018-06-02T10:48:28.293Z,27.77
2018-06-02T10:50:56.310Z,27.58
2018-06-02T10:53:24.251Z,27.68
2018-06-02T10:55:52.100Z,27.81
2018-06-02T10:58:20.230Z,28.00
2018-06-02T11:00:48.401Z,28.03
2018-06-02T11:03:16.649Z,27.81
2018-06-02T11:05:44.493Z,27.80
2018-06-02T11:08:12.229Z,27.90
2018-06-02T11:10:40.336Z,27.99
2018-06-02T11:13:08.574Z,27.88
2018-06-02T11:15:36.371Z,27.81
2018-06-02T11:18:04.555Z,27.70
2018-06-02T11:20:32.537Z,27.82
2018-06-02T11:23:00.468Z,27.63
2018-06-02T11:25:28.412Z,27.82
2018-06-02T11:27:56.814Z,27.82
2018-06-02T11:30:24.590Z,27.82
2018-06-02T11:32:52.554Z,27.88
2018-06-02T11:35:20.929Z,28.02
2018-06-02T11:37:48.722Z,28.07
2018-06-02T11:40:17.070Z,27.90
2018-06-02T11:42:45.625Z,27.94
2018-06-02T11:45:13.558Z,27.58
2018-06-02T11:47:41.650Z,27.95
2018-06-02T11:50:09.980Z,27.92
2018-06-02T11:52:38.407Z,27.96
2018-06-02T11:55:06.278Z,27.90
2018-06-02T11:57:34.106Z,28.03
2018-06-02T12:00:03.408Z,28.01
2018-06-02T12:02:31.402Z,28.23
2018-06-02T12:04:59.423Z,28.19
2018-06-02T12:07:27.653Z,28.30
2018-06-02T12:09:55.445Z,28.05
2018-06-02T12:12:23.626Z,28.12
2018-06-02T12:14:52.218Z,28.32
2018-06-02T12:17:20.182Z,28.58
2018-06-02T12:19:48.590Z,28.60
2018-06-02T12:22:16.663Z,28.69
2018-06-02T12:24:44.611Z,28.78
2018-06-02T12:27:12.535Z,28.26
2018-06-02T12:29:40.726Z,27.87
2018-06-02T12:32:08.752Z,27.96
2018-06-02T12:34:36.888Z,28.25
2018-06-02T12:37:05.047Z,28.31
2018-06-02T12:39:32.828Z,28.53
2018-06-02T12:42:00.898Z,28.30
2018-06-02T12:44:29.919Z,28.31
2018-06-02T12:46:57.744Z,28.38
2018-06-02T12:49:26.548Z,28.21
2018-06-02T12:51:54.909Z,28.10
2018-06-02T12:54:22.760Z,28.00
2018-06-02T12:56:51.035Z,28.19
2018-06-02T12:59:19.441Z,28.04
2018-06-02T13:01:47.534Z,28.36
2018-06-02T13:04:16.097Z,28.55
2018-06-02T13:06:43.986Z,28.82
2018-06-02T13:09:11.906Z,28.93
2018-06-02T13:11:39.988Z,28.85
2018-06-02T13:14:08.178Z,28.84
2018-06-02T13:16:35.930Z,28.78
2018-06-02T13:19:03.988Z,28.84
2018-06-02T13:21:32.012Z,28.77
2018-06-02T13:23:59.838Z,29.01
2018-06-02T13:26:27.946Z,28.64
2018-06-02T13:28:55.965Z,28.22
2018-06-02T13:31:24.178Z,28.34
2018-06-02T13:33:52.340Z,28.16
2018-06-02T13:36:20.557Z,28.18
2018-06-02T13:38:48.478Z,28.26
2018-06-02T13:41:16.847Z,28.30
2018-06-02T13:43:46.060Z,28.52
2018-06-02T13:46:14.030Z,28.73
2018-06-02T13:48:46.838Z,28.72
2018-06-02T13:51:14.775Z,28.70
2018-06-02T13:53:42.757Z,28.48
2018-06-02T13:56:10.907Z,28.51
2018-06-02T13:58:39.854Z,28.28
2018-06-02T14:01:07.861Z,28.50
2018-06-02T14:03:36.064Z,28.67
2018-06-02T14:06:04.094Z,28.41
2018-06-02T14:08:32.345Z,28.38
2018-06-02T14:11:00.357Z,28.50
2018-06-02T14:13:28.679Z,28.74
2018-06-02T14:15:56.562Z,28.79
2018-06-02T14:18:25.550Z,28.87
2018-06-02T14:20:53.750Z,28.51
2018-06-02T14:23:22.702Z,28.63
2018-06-02T14:25:51.157Z,28.73
2018-06-02T14:28:19.413Z,28.70
2018-06-02T14:30:48.267Z,28.74
2018-06-02T14:33:16.343Z,28.44
2018-06-02T14:35:44.594Z,28.38
2018-06-02T14:38:12.907Z,28.39
2018-06-02T14:40:41.061Z,28.43
2018-06-02T14:43:09.865Z,28.58
2018-06-02T14:45:37.914Z,28.61
2018-06-02T14:48:06.677Z,28.58
2018-06-02T14:50:35.283Z,28.55
2018-06-02T14:53:03.350Z,28.53
2018-06-02T14:55:31.198Z,28.40
2018-06-02T14:57:59.101Z,28.26
2018-06-02T15:00:27.579Z,28.12
2018-06-02T15:02:55.722Z,28.04
2018-06-02T15:05:23.869Z,27.87
2018-06-02T15:07:51.900Z,28.11
2018-06-02T15:10:19.852Z,27.94
2018-06-02T15:12:48.094Z,28.02
2018-06-02T15:15:16.459Z,28.15
2018-06-02T15:17:44.447Z,28.29
2018-06-02T15:20:12.333Z,28.40
2018-06-02T15:22:40.530Z,28.22
2018-06-02T15:25:08.580Z,27.95
2018-06-02T15:27:36.884Z,27.83
2018-06-02T15:30:05.171Z,27.73
2018-06-02T15:32:34.481Z,27.68
2018-06-02T15:35:02.487Z,27.78
2018-06-02T15:37:30.340Z,27.72
2018-06-02T15:39:58.741Z,27.60
2018-06-02T15:42:26.806Z,27.56
2018-06-02T15:44:54.621Z,27.35
2018-06-02T15:47:22.895Z,27.59
2018-06-02T15:49:51.206Z,27.29
2018-06-02T15:52:19.237Z,27.40
2018-06-02T15:54:47.507Z,27.53
2018-06-02T15:57:15.316Z,27.45
2018-06-02T15:59:44.465Z,27.44
2018-06-02T16:02:12.896Z,27.51
2018-06-02T16:04:40.932Z,27.32
2018-06-02T16:07:09.049Z,27.39
2018-06-02T16:09:37.138Z,27.34
2018-06-02T16:12:06.045Z,27.26
2018-06-02T16:14:34.665Z,27.37
2018-06-02T16:17:02.509Z,27.40
2018-06-02T16:19:30.554Z,27.29
2018-06-02T16:21:58.891Z,27.26
2018-06-02T16:24:27.120Z,27.20
2018-06-02T16:26:55.139Z,27.28
2018-06-02T16:29:23.039Z,26.29
2018-06-02T16:31:51.233Z,26.98
2018-06-02T16:34:19.286Z,26.87
2018-06-02T16:36:47.323Z,26.75
2018-06-02T16:39:17.383Z,26.62
2018-06-02T16:41:45.397Z,26.67
2018-06-02T16:44:13.539Z,26.80
2018-06-02T16:46:41.763Z,26.60
2018-06-02T16:49:09.748Z,26.60
2018-06-02T16:51:38.602Z,26.70
2018-06-02T16:54:06.816Z,26.69
2018-06-02T16:56:34.702Z,26.66
2018-06-02T16:59:02.940Z,26.57
2018-06-02T17:01:30.935Z,26.69
2018-06-02T17:03:59.286Z,26.64
2018-06-02T17:06:27.241Z,26.62
2018-06-02T17:08:55.816Z,26.51
2018-06-02T17:11:24.720Z,26.43
2018-06-02T17:13:52.897Z,26.19
2018-06-02T17:16:21.154Z,26.24
2018-06-02T17:18:49.769Z,26.27
2018-06-02T17:21:17.589Z,26.21
2018-06-02T17:23:47.024Z,25.96
2018-06-02T17:26:14.816Z,25.87
2018-06-02T17:28:42.840Z,25.87
2018-06-02T17:31:10.819Z,25.74
2018-06-02T17:33:38.689Z,25.93
2018-06-02T17:36:06.573Z,25.66
2018-06-02T17:38:35.975Z,25.98
2018-06-02T17:41:04.291Z,25.93
2018-06-02T17:43:32.179Z,25.68
2018-06-02T17:46:00.210Z,25.70
2018-06-02T17:48:28.556Z,25.60
2018-06-02T17:50:56.916Z,25.57
2018-06-02T17:53:26.031Z,25.62
2018-06-02T17:55:54.050Z,25.61
2018-06-02T17:58:22.939Z,25.59
2018-06-02T18:00:51.086Z,25.55
2018-06-02T18:03:20.055Z,25.61
2018-06-02T18:05:48.230Z,25.56
2018-06-02T18:08:16.096Z,25.35
2018-06-02T18:10:44.259Z,25.25
2018-06-02T18:13:12.070Z,25.28
2018-06-02T18:15:40.721Z,25.40
2018-06-02T18:18:08.911Z,25.44
2018-06-02T18:20:37.500Z,25.36
2018-06-02T18:23:05.525Z,25.46
2018-06-02T18:25:33.625Z,25.47
2018-06-02T18:28:01.890Z,25.10
2018-06-02T18:30:29.735Z,25.04
2018-06-02T18:32:57.737Z,24.99
2018-06-02T18:35:25.801Z,25.10
2018-06-02T18:37:53.968Z,24.86
2018-06-02T18:40:22.655Z,24.83
2018-06-02T18:42:51.453Z,24.95
2018-06-02T18:45:19.634Z,24.77
2018-06-02T18:47:47.794Z,24.83
2018-06-02T18:50:15.940Z,24.88
2018-06-02T18:52:43.836Z,24.80
2018-06-02T18:55:11.878Z,24.82
2018-06-02T18:57:40.691Z,24.83
2018-06-02T19:00:09.592Z,24.69
2018-06-02T19:02:37.425Z,24.58
2018-06-02T19:05:05.517Z,24.58
2018-06-02T19:07:33.467Z,24.56
2018-06-02T19:10:02.255Z,24.62
2018-06-02T19:12:31.886Z,24.63
2018-06-02T19:15:00.566Z,24.64
2018-06-02T19:17:28.484Z,24.63
2018-06-02T19:19:56.713Z,24.64
2018-06-02T19:22:26.619Z,24.61
2018-06-02T19:24:56.309Z,24.45
2018-06-02T19:27:24.542Z,24.49
2018-06-02T19:29:52.891Z,24.47
2018-06-02T19:32:21.517Z,24.60
2018-06-02T19:34:49.395Z,24.50
2018-06-02T19:37:18.334Z,24.46
2018-06-02T19:39:46.652Z,24.43
2018-06-02T19:42:15.501Z,24.39
2018-06-02T19:44:43.672Z,24.37
2018-06-02T19:47:12.461Z,24.33
2018-06-02T19:49:40.468Z,24.16
2018-06-02T19:52:08.608Z,24.14
2018-06-02T19:54:36.675Z,24.15
2018-06-02T19:57:04.952Z,24.21
2018-06-02T19:59:33.250Z,24.24
2018-06-02T20:02:01.070Z,24.03
2018-06-02T20:07:23.034Z,24.01
2018-06-02T20:09:50.889Z,23.93
2018-06-02T20:12:18.722Z,23.93
2018-06-02T20:14:47.028Z,23.80
2018-06-02T20:17:14.911Z,23.81
2018-06-02T20:19:42.764Z,23.85
2018-06-02T20:22:11.085Z,23.80
2018-06-02T20:24:39.026Z,23.82
2018-06-02T20:27:06.892Z,23.82
2018-06-02T20:29:35.859Z,23.74
2018-06-02T20:32:03.723Z,23.70
2018-06-02T20:34:32.028Z,23.72
2018-06-02T20:37:00.328Z,23.70
2018-06-02T20:39:28.174Z,23.71
2018-06-02T20:41:56.241Z,23.74
2018-06-02T20:44:24.520Z,23.78
2018-06-02T20:46:52.377Z,23.73
2018-06-02T20:49:20.185Z,23.69
2018-06-02T20:51:48.525Z,23.61
2018-06-02T20:54:16.323Z,23.56
2018-06-02T20:56:44.236Z,23.51
2018-06-02T20:59:12.532Z,23.43
2018-06-02T21:01:40.810Z,23.43
2018-06-02T21:04:09.964Z,23.44
2018-06-02T21:06:39.076Z,23.52
2018-06-02T21:09:07.385Z,23.49
2018-06-02T21:11:35.555Z,23.48
2018-06-02T21:14:03.829Z,23.49
2018-06-02T21:16:32.159Z,23.45
2018-06-02T21:19:00.074Z,23.42
2018-06-02T21:21:28.402Z,23.27
2018-06-02T21:23:56.449Z,23.21
2018-06-02T21:26:24.319Z,23.25
2018-06-02T21:28:52.719Z,23.24
2018-06-02T21:31:20.958Z,23.23
2018-06-02T21:33:49.717Z,23.21
2018-06-02T21:36:17.902Z,23.17
2018-06-02T21:38:45.977Z,23.09
2018-06-02T21:41:13.747Z,22.86
2018-06-02T21:43:42.018Z,22.70
2018-06-02T21:46:11.215Z,22.64
2018-06-02T21:48:39.081Z,22.62
2018-06-02T21:51:07.747Z,22.61
2018-06-02T21:53:35.939Z,22.53
2018-06-02T21:56:03.732Z,22.39
2018-06-02T21:58:31.976Z,22.37
2018-06-02T22:01:00.610Z,22.43
2018-06-02T22:03:28.742Z,22.42
2018-06-02T22:05:56.907Z,22.43
2018-06-02T22:08:24.772Z,22.39
2018-06-02T22:10:52.843Z,22.31
2018-06-02T22:13:20.914Z,22.28
2018-06-02T22:15:49.089Z,22.26
2018-06-02T22:18:17.367Z,22.14
2018-06-02T22:20:45.242Z,22.11
2018-06-02T22:23:13.208Z,22.05
2018-06-02T22:25:41.276Z,22.08
2018-06-02T22:28:09.452Z,22.11
2018-06-02T22:30:37.318Z,22.11
2018-06-02T22:33:05.513Z,22.09
2018-06-02T22:35:35.343Z,22.06
2018-06-02T22:38:03.209Z,22.05
2018-06-02T22:40:31.248Z,21.93
2018-06-02T22:42:59.259Z,21.76
2018-06-02T22:45:27.390Z,21.74
2018-06-02T22:47:56.047Z,21.66
2018-06-02T22:50:24.133Z,21.58
2018-06-02T22:52:52.625Z,21.68
2018-06-02T22:55:25.991Z,21.68
2018-06-02T22:57:54.507Z,21.63
2018-06-02T23:00:22.380Z,21.59
2018-06-02T23:02:51.624Z,21.51
2018-06-02T23:05:19.559Z,21.51
2018-06-02T23:07:47.465Z,21.54
2018-06-02T23:10:16.074Z,21.41
2018-06-02T23:12:43.922Z,21.43
2018-06-02T23:15:11.705Z,21.43
2018-06-02T23:17:40.035Z,21.41
2018-06-02T23:20:07.948Z,21.36
2018-06-02T23:22:40.029Z,21.32
2018-06-02T23:25:08.326Z,21.29
2018-06-02T23:27:36.155Z,21.26
2018-06-02T23:30:04.029Z,21.17
2018-06-02T23:32:32.327Z,21.24
2018-06-02T23:35:00.269Z,21.29
2018-06-02T23:37:28.374Z,21.22
2018-06-02T23:39:56.410Z,21.16
2018-06-02T23:42:24.242Z,21.07
2018-06-02T23:44:52.143Z,21.05
2018-06-02T23:47:20.213Z,21.14
2018-06-02T23:49:48.001Z,21.13
2018-06-02T23:52:16.151Z,21.07
2018-06-02T23:54:44.327Z,21.00
2018-06-02T23:57:12.293Z,20.84
2018-06-02T23:59:40.182Z,20.91
